Time;durP1;ratioP1;P1;durP2;ratioP2;P2;SDS_P1;SDS_P2;PMS_P1;PMS_P2;Temp;Humidity;BMP_temperature;BMP_pressure;BME280_temperature;BME280_humidity;BME280_pressure;Samples;Min_cycle;Max_cycle;Signal;HPM_P1;HPM_P2
2021/04/06 00:01:42;;;;;;;3.40;1.80;;;-1.30;99.90;;;;;;5043190;28;20509;-67
2021/04/06 00:04:16;;;;;;;1.70;1.60;;;-1.30;99.90;;;;;;5060171;28;20481;-66
2021/04/06 00:06:48;;;;;;;6.37;2.73;;;-1.20;99.90;;;;;;5060862;28;20446;-67
2021/04/06 00:09:19;;;;;;;7.00;2.27;;;-1.20;99.90;;;;;;5059824;28;20438;-66
2021/04/06 00:11:48;;;;;;;4.80;1.90;;;-1.20;99.90;;;;;;5059834;28;20433;-67
2021/04/06 00:14:17;;;;;;;2.43;2.23;;;-1.20;99.90;;;;;;5057391;28;20469;-68
2021/04/06 00:16:46;;;;;;;9.40;2.27;;;-1.30;99.90;;;;;;5061127;28;20973;-67
2021/04/06 00:19:16;;;;;;;2.37;2.17;;;-1.10;99.90;;;;;;5058754;28;20460;-66
2021/04/06 00:21:48;;;;;;;2.57;1.80;;;-1.00;99.90;;;;;;5054458;28;20446;-67
2021/04/06 00:24:16;;;;;;;2.53;2.00;;;-0.90;99.90;;;;;;5053814;28;20438;-67
2021/04/06 00:26:47;;;;;;;2.10;1.90;;;-1.00;99.90;;;;;;5054494;28;20559;-66
2021/04/06 00:29:17;;;;;;;2.27;2.07;;;-0.90;99.90;;;;;;5054880;28;20439;-66
2021/04/06 00:31:48;;;;;;;4.43;2.00;;;-0.90;99.90;;;;;;5053307;28;20469;-70
2021/04/06 00:34:17;;;;;;;3.10;2.20;;;-0.90;99.90;;;;;;5054735;28;20552;-67
2021/04/06 00:36:52;;;;;;;2.20;2.00;;;-1.00;99.90;;;;;;5054179;28;20785;-66
2021/04/06 00:39:27;;;;;;;3.97;2.80;;;-0.90;99.90;;;;;;5054328;28;20430;-66
2021/04/06 00:41:56;;;;;;;3.57;2.20;;;-0.80;99.90;;;;;;5035906;28;20445;-66
2021/04/06 00:44:25;;;;;;;4.63;2.33;;;-0.70;99.90;;;;;;5054206;28;20963;-66
2021/04/06 00:46:59;;;;;;;4.13;2.17;;;-0.60;99.90;;;;;;5053376;28;20539;-66
2021/04/06 00:49:30;;;;;;;3.30;2.10;;;-0.50;99.90;;;;;;5054051;28;20466;-67
2021/04/06 00:51:59;;;;;;;1.60;1.50;;;-0.50;99.90;;;;;;5035624;28;20439;-67
2021/04/06 00:54:26;;;;;;;6.27;3.50;;;-0.70;99.90;;;;;;5054672;28;20466;-66
2021/04/06 00:56:58;;;;;;;4.03;2.20;;;-0.70;99.90;;;;;;5055186;28;20937;-67
2021/04/06 00:59:26;;;;;;;4.90;2.10;;;-0.80;99.90;;;;;;5036830;28;20437;-66
2021/04/06 01:01:59;;;;;;;3.90;2.30;;;-0.80;99.90;;;;;;5052701;28;20559;-67
2021/04/06 01:04:29;;;;;;;2.53;1.80;;;-0.70;99.90;;;;;;5053291;28;20438;-69
2021/04/06 01:07:01;;;;;;;2.80;2.30;;;-0.70;99.90;;;;;;5053525;28;20929;-66
2021/04/06 01:09:33;;;;;;;4.70;2.30;;;-0.70;99.90;;;;;;5057027;28;20496;-69
2021/04/06 01:12:05;;;;;;;2.70;2.30;;;-0.80;99.90;;;;;;5036346;28;20802;-67
2021/04/06 01:14:36;;;;;;;2.03;1.60;;;-0.70;99.90;;;;;;5054722;28;20468;-66
2021/04/06 01:17:06;;;;;;;6.73;2.20;;;-0.70;99.90;;;;;;5056601;28;20469;-66
2021/04/06 01:19:35;;;;;;;4.70;2.23;;;-0.70;99.90;;;;;;5041228;28;20521;-67
2021/04/06 01:22:07;;;;;;;3.20;2.03;;;-0.70;99.90;;;;;;5058092;28;21001;-67
2021/04/06 01:24:37;;;;;;;2.50;2.23;;;-0.80;99.90;;;;;;5056994;28;20438;-67
2021/04/06 01:27:08;;;;;;;3.23;1.93;;;-0.70;99.90;;;;;;5057590;28;20518;-66
2021/04/06 01:29:36;;;;;;;3.17;2.10;;;-0.70;99.90;;;;;;5057404;28;20489;-67
2021/04/06 01:32:05;;;;;;;4.33;3.53;;;-0.70;99.90;;;;;;5055824;28;20939;-67
2021/04/06 01:34:33;;;;;;;2.33;1.90;;;-0.70;99.90;;;;;;5056778;28;20461;-69
2021/04/06 01:37:01;;;;;;;3.60;1.80;;;-0.80;99.90;;;;;;5057898;28;20450;-66
2021/04/06 01:39:30;;;;;;;5.60;1.90;;;-0.80;99.90;;;;;;5057856;28;20461;-66
2021/04/06 01:42:01;;;;;;;2.67;2.27;;;-0.80;99.90;;;;;;5057312;28;20430;-66
2021/04/06 01:44:30;;;;;;;5.43;3.20;;;-0.90;99.90;;;;;;5057660;28;20430;-66
2021/04/06 01:46:59;;;;;;;2.80;2.10;;;-0.80;99.90;;;;;;5055842;28;21005;-67
2021/04/06 01:49:29;;;;;;;2.13;1.60;;;-0.80;99.90;;;;;;5057155;28;20521;-66
2021/04/06 01:51:59;;;;;;;4.73;2.60;;;-0.80;99.90;;;;;;5057965;28;20554;-66
2021/04/06 01:54:27;;;;;;;3.40;2.57;;;-0.90;99.90;;;;;;5057002;28;20466;-66
2021/04/06 01:56:59;;;;;;;2.93;2.00;;;-1.00;99.90;;;;;;5057434;28;20422;-66
2021/04/06 01:59:34;;;;;;;4.33;2.53;;;-1.00;99.90;;;;;;5056472;28;20466;-67
2021/04/06 02:02:03;;;;;;;2.53;2.10;;;-1.10;99.90;;;;;;5056093;28;20476;-67
2021/04/06 02:04:31;;;;;;;4.20;2.20;;;-1.20;99.90;;;;;;5057550;28;20442;-66
2021/04/06 02:06:59;;;;;;;3.17;2.20;;;-1.30;99.90;;;;;;5039260;28;20430;-69
2021/04/06 02:09:28;;;;;;;5.50;2.43;;;-1.40;99.90;;;;;;5056699;28;20434;-67
2021/04/06 02:12:22;;;;;;;4.87;2.47;;;-1.40;99.90;;;;;;5057443;28;20486;-66
2021/04/06 02:14:54;;;;;;;5.03;2.70;;;-1.50;99.90;;;;;;5056827;28;20475;-67
2021/04/06 02:17:23;;;;;;;1.90;1.80;;;-1.40;99.90;;;;;;5056610;28;20481;-66
2021/04/06 02:19:50;;;;;;;4.10;1.90;;;-1.40;99.90;;;;;;5057182;28;20435;-67
2021/04/06 02:22:54;;;;;;;3.77;2.53;;;-1.30;99.90;;;;;;5057242;28;20514;-69
2021/04/06 02:25:24;;;;;;;2.70;1.98;;;-1.40;99.90;;;;;;5057125;28;20511;-67
2021/04/06 02:27:51;;;;;;;3.90;2.10;;;-1.50;99.90;;;;;;5058302;28;20184;-66
2021/04/06 02:30:29;;;;;;;4.00;2.30;;;-1.50;99.90;;;;;;5036036;28;20259;-68
2021/04/06 02:32:58;;;;;;;5.67;3.00;;;-1.50;99.90;;;;;;5053263;28;20441;-66
2021/04/06 02:35:26;;;;;;;2.30;2.10;;;-1.40;99.90;;;;;;5056076;28;20467;-68
2021/04/06 02:37:54;;;;;;;5.50;1.92;;;-1.40;99.90;;;;;;5056617;28;20176;-67
2021/04/06 02:40:25;;;;;;;5.00;1.83;;;-1.50;99.90;;;;;;5055435;28;20196;-67
2021/04/06 02:42:57;;;;;;;9.43;1.75;;;-1.40;99.90;;;;;;5057820;28;20443;-67
2021/04/06 02:45:28;;;;;;;2.65;1.67;;;-1.30;99.90;;;;;;5053177;28;20192;-66
2021/04/06 02:48:04;;;;;;;4.67;2.13;;;-1.30;99.90;;;;;;5056614;28;20181;-67
2021/04/06 02:50:57;;;;;;;2.83;1.83;;;-1.30;99.90;;;;;;5056006;28;20429;-66
2021/04/06 02:53:25;;;;;;;2.45;1.45;;;-1.30;99.90;;;;;;5057581;28;20439;-67
2021/04/06 02:55:52;;;;;;;5.30;1.67;;;-1.30;99.90;;;;;;5056761;28;20180;-67
2021/04/06 02:58:22;;;;;;;4.38;1.63;;;-1.30;99.90;;;;;;5056845;28;20431;-67
2021/04/06 03:00:51;;;;;;;2.63;1.53;;;-1.20;99.90;;;;;;5055807;28;20230;-67
2021/04/06 03:03:22;;;;;;;3.47;1.50;;;-1.10;99.90;;;;;;5053369;28;20446;-66
2021/04/06 03:06:01;;;;;;;2.77;1.63;;;-1.10;99.90;;;;;;5053977;28;20466;-69
2021/04/06 03:08:30;;;;;;;2.60;1.57;;;-1.10;99.90;;;;;;5055717;28;20457;-67
2021/04/06 03:11:01;;;;;;;1.73;1.63;;;-1.10;99.90;;;;;;5066351;28;20435;-67
2021/04/06 03:13:29;;;;;;;1.87;1.60;;;-1.10;99.90;;;;;;5047974;28;20438;-66
2021/04/06 03:15:58;;;;;;;3.80;1.33;;;-1.30;99.90;;;;;;5050238;28;20510;-67
2021/04/06 03:18:33;;;;;;;6.67;1.63;;;-1.20;99.90;;;;;;5053017;28;20199;-67
2021/04/06 03:21:02;;;;;;;3.47;1.40;;;-1.10;99.90;;;;;;5049142;28;20449;-67
2021/04/06 03:23:32;;;;;;;2.80;1.50;;;-1.10;99.90;;;;;;5046842;28;20474;-66
2021/04/06 03:26:00;;;;;;;2.13;1.20;;;-1.00;99.90;;;;;;5051333;28;20428;-66
2021/04/06 03:28:33;;;;;;;1.63;1.50;;;-1.10;99.90;;;;;;5039045;28;20427;-66
2021/04/06 03:31:28;;;;;;;2.97;1.60;;;-1.00;99.90;;;;;;5054860;28;20578;-66
2021/04/06 03:33:58;;;;;;;5.43;1.50;;;-1.00;99.90;;;;;;5056805;28;20508;-68
2021/04/06 03:36:28;;;;;;;1.67;1.57;;;-1.00;99.90;;;;;;5038788;28;20438;-68
2021/04/06 03:39:04;;;;;;;2.23;1.47;;;-0.90;99.90;;;;;;5055797;28;20458;-66
2021/04/06 03:41:36;;;;;;;2.43;1.23;;;-0.90;99.90;;;;;;5056691;28;20521;-66
2021/04/06 03:44:05;;;;;;;3.27;1.73;;;-1.10;99.90;;;;;;5056692;28;20797;-66
2021/04/06 03:46:35;;;;;;;6.30;1.67;;;-1.00;99.90;;;;;;5054456;28;20474;-67
2021/04/06 03:49:14;;;;;;;3.90;1.70;;;-1.00;99.90;;;;;;5055468;28;20754;-67
2021/04/06 03:51:49;;;;;;;1.90;1.30;;;-1.10;99.90;;;;;;5056098;28;20457;-67
2021/04/06 03:54:39;;;;;;;2.10;1.40;;;-1.00;99.90;;;;;;5054779;28;20293;-67
2021/04/06 03:57:36;;;;;;;4.13;2.00;;;-1.00;99.90;;;;;;5055940;28;20492;-67
2021/04/06 04:00:09;;;;;;;1.80;1.43;;;-1.10;99.90;;;;;;5054573;28;20526;-66
2021/04/06 04:02:37;;;;;;;4.20;1.90;;;-1.00;99.90;;;;;;5036739;28;20569;-66
2021/04/06 04:05:06;;;;;;;4.50;1.90;;;-0.90;99.90;;;;;;5055012;28;20809;-67
2021/04/06 04:07:35;;;;;;;2.07;1.20;;;-0.90;99.90;;;;;;5055214;28;20975;-67
2021/04/06 04:10:06;;;;;;;3.57;2.93;;;-0.80;99.90;;;;;;5055191;28;20492;-66
2021/04/06 04:12:34;;;;;;;5.13;3.37;;;-0.80;99.90;;;;;;5055478;28;20438;-66
2021/04/06 04:15:01;;;;;;;3.80;1.40;;;-0.70;99.90;;;;;;5055561;28;20465;-66
2021/04/06 04:17:30;;;;;;;3.43;1.80;;;-0.70;99.90;;;;;;5018147;28;20505;-66
2021/04/06 04:19:59;;;;;;;1.67;1.03;;;-0.60;99.90;;;;;;5037607;28;20431;-66
2021/04/06 04:22:27;;;;;;;1.47;1.23;;;-0.60;99.90;;;;;;5001901;28;20966;-66
2021/04/06 04:24:54;;;;;;;4.40;2.43;;;-0.70;99.90;;;;;;5017501;28;20447;-66
2021/04/06 04:27:22;;;;;;;2.40;1.37;;;-0.60;99.90;;;;;;5033345;28;20439;-69
2021/04/06 04:29:50;;;;;;;4.80;2.47;;;-0.60;99.90;;;;;;5034133;28;20558;-67
2021/04/06 04:32:17;;;;;;;1.70;1.47;;;-0.60;99.90;;;;;;5052287;28;20489;-66
2021/04/06 04:34:44;;;;;;;1.33;1.23;;;-0.60;99.90;;;;;;5054208;28;20585;-67
2021/04/06 04:37:12;;;;;;;4.37;2.03;;;-0.50;99.90;;;;;;5054339;28;20462;-67
2021/04/06 04:39:42;;;;;;;6.63;1.40;;;-0.50;99.90;;;;;;5053985;28;20426;-69
2021/04/06 04:42:29;;;;;;;5.30;1.43;;;-0.50;99.90;;;;;;5054351;28;20466;-67
2021/04/06 04:44:57;;;;;;;3.57;1.67;;;-0.50;99.90;;;;;;5054629;28;20853;-67
2021/04/06 04:47:25;;;;;;;2.23;1.67;;;-0.50;99.90;;;;;;5053240;28;20906;-69
2021/04/06 04:49:52;;;;;;;2.67;1.57;;;-0.50;99.90;;;;;;5036583;28;20427;-67
2021/04/06 04:52:20;;;;;;;6.03;1.37;;;-0.50;99.90;;;;;;5039413;28;20487;-66
2021/04/06 04:54:48;;;;;;;1.53;1.20;;;-0.50;99.90;;;;;;5059012;28;20533;-67
2021/04/06 04:57:15;;;;;;;2.10;1.40;;;-0.40;99.90;;;;;;5040681;28;20443;-67
2021/04/06 05:02:35;;;;;;;1.63;1.53;;;-0.40;99.90;;;;;;5057778;28;20474;-67
2021/04/06 05:05:05;;;;;;;0.90;0.70;;;-0.40;99.90;;;;;;5057898;28;20434;-67
2021/04/06 05:07:33;;;;;;;1.83;1.50;;;-0.40;99.90;;;;;;5057822;28;20438;-66
2021/04/06 05:10:01;;;;;;;5.20;1.40;;;-0.40;99.90;;;;;;5058296;28;20460;-69
2021/04/06 05:12:28;;;;;;;3.80;2.17;;;-0.50;99.90;;;;;;5058172;28;20426;-69
2021/04/06 05:14:56;;;;;;;1.83;1.23;;;-0.40;99.90;;;;;;5057365;28;20511;-66
2021/04/06 05:17:24;;;;;;;5.23;3.33;;;-0.40;99.90;;;;;;5056837;28;20474;-66
2021/04/06 05:19:51;;;;;;;3.60;3.03;;;-0.40;99.90;;;;;;5039993;28;20529;-67
2021/04/06 05:25:12;;;;;;;4.00;1.83;;;-0.30;99.90;;;;;;5059580;28;20430;-67
2021/04/06 05:27:39;;;;;;;1.50;1.40;;;-0.30;99.90;;;;;;5058243;28;20431;-66
2021/04/06 05:30:08;;;;;;;2.43;1.67;;;-0.20;99.90;;;;;;5056927;28;20479;-67
2021/04/06 05:32:35;;;;;;;1.93;1.10;;;-0.20;99.90;;;;;;5057110;28;20482;-67
2021/04/06 05:35:04;;;;;;;7.33;2.00;;;-0.20;99.90;;;;;;5057762;28;20946;-67
2021/04/06 05:37:31;;;;;;;1.80;1.50;;;-0.20;99.90;;;;;;5057931;28;20639;-67
2021/04/06 05:39:59;;;;;;;1.73;1.47;;;-0.20;99.90;;;;;;5039742;28;20784;-67
2021/04/06 05:42:28;;;;;;;2.30;1.80;;;-0.20;99.90;;;;;;5057608;28;20463;-67
2021/04/06 05:44:56;;;;;;;3.03;1.67;;;-0.20;99.90;;;;;;5039185;28;20797;-67
2021/04/06 05:47:29;;;;;;;6.53;2.57;;;-0.20;99.90;;;;;;5038568;28;20478;-67
2021/04/06 05:49:57;;;;;;;3.57;1.73;;;-0.20;99.90;;;;;;5057437;28;20438;-67
2021/04/06 05:52:25;;;;;;;2.27;2.03;;;-0.20;99.90;;;;;;5057989;28;20798;-67
2021/04/06 05:54:56;;;;;;;2.40;1.40;;;-0.20;99.90;;;;;;5039585;28;20470;-69
2021/04/06 05:57:23;;;;;;;5.43;1.73;;;-0.20;99.90;;;;;;5039351;28;20431;-67
2021/04/06 05:59:52;;;;;;;2.50;1.73;;;-0.20;99.90;;;;;;5057257;28;20423;-67
2021/04/06 06:02:19;;;;;;;3.33;2.17;;;-0.10;99.90;;;;;;5037343;28;20473;-69
2021/04/06 06:04:47;;;;;;;3.53;1.50;;;-0.10;99.90;;;;;;5057724;28;20538;-67
2021/04/06 06:07:15;;;;;;;3.17;1.53;;;-0.10;99.90;;;;;;5039246;28;20443;-66
2021/04/06 06:09:44;;;;;;;4.87;2.10;;;-0.10;99.90;;;;;;5057075;28;20419;-66
2021/04/06 06:12:17;;;;;;;10.70;2.00;;;0.00;99.90;;;;;;5039258;28;20433;-66
2021/04/06 06:14:47;;;;;;;2.27;2.00;;;0.00;99.90;;;;;;5056526;28;20462;-66
2021/04/06 06:17:19;;;;;;;2.00;1.70;;;0.00;99.90;;;;;;5038225;28;20550;-67
2021/04/06 06:19:49;;;;;;;4.23;2.30;;;0.10;99.90;;;;;;5056887;28;20427;-67
2021/04/06 06:22:41;;;;;;;4.63;2.40;;;0.20;99.90;;;;;;5056880;28;20502;-66
2021/04/06 06:25:11;;;;;;;7.43;1.60;;;0.20;99.90;;;;;;5056730;28;20525;-67
2021/04/06 06:27:42;;;;;;;2.30;1.80;;;0.30;99.90;;;;;;5056720;28;20426;-67
2021/04/06 06:30:25;;;;;;;6.90;2.10;;;0.40;99.90;;;;;;5056693;28;20470;-67
2021/04/06 06:33:19;;;;;;;2.40;2.17;;;0.40;99.90;;;;;;5056886;28;20469;-69
2021/04/06 06:35:49;;;;;;;3.07;2.20;;;0.60;99.90;;;;;;5053904;28;20478;-67
2021/04/06 06:38:19;;;;;;;6.60;2.50;;;0.60;99.90;;;;;;5055952;28;20471;-67
2021/04/06 06:40:50;;;;;;;3.10;2.00;;;0.70;99.90;;;;;;5056882;28;20423;-67
2021/04/06 06:43:20;;;;;;;3.47;2.20;;;0.60;99.90;;;;;;5055987;28;20439;-67
2021/04/06 06:45:50;;;;;;;4.97;2.57;;;0.60;99.90;;;;;;5055533;28;20235;-67
2021/04/06 06:48:30;;;;;;;3.20;2.33;;;0.50;99.90;;;;;;5056940;28;20426;-69
2021/04/06 06:50:59;;;;;;;6.68;2.80;;;0.40;99.90;;;;;;5037771;28;20467;-67
2021/04/06 06:53:35;;;;;;;5.93;2.40;;;0.40;99.90;;;;;;5056290;28;20180;-71
2021/04/06 06:56:04;;;;;;;3.20;1.83;;;0.50;99.90;;;;;;5056991;28;20462;-66
2021/04/06 06:58:34;;;;;;;6.30;2.80;;;0.50;99.90;;;;;;5038538;28;20438;-67
2021/04/06 07:01:02;;;;;;;5.07;2.33;;;0.50;99.90;;;;;;5037404;28;20474;-67
2021/04/06 07:03:31;;;;;;;3.73;2.00;;;0.60;99.90;;;;;;5056253;28;20526;-67
2021/04/06 07:06:21;;;;;;;2.70;2.30;;;0.60;99.90;;;;;;5055821;28;20872;-67
2021/04/06 07:09:22;;;;;;;4.03;2.50;;;0.70;99.90;;;;;;5056535;28;20803;-67
2021/04/06 07:11:51;;;;;;;6.67;2.50;;;0.90;99.90;;;;;;5057167;28;20816;-67
2021/04/06 07:14:19;;;;;;;7.00;2.90;;;0.90;99.90;;;;;;5055382;28;20962;-67
2021/04/06 07:16:49;;;;;;;4.87;2.23;;;1.00;99.90;;;;;;5055239;28;20536;-66
2021/04/06 07:19:20;;;;;;;4.77;2.80;;;1.00;99.90;;;;;;5056386;28;20516;-67
2021/04/06 07:21:48;;;;;;;5.60;3.40;;;1.00;99.90;;;;;;5038737;28;20446;-67
2021/04/06 07:24:37;;;;;;;4.60;2.83;;;1.10;99.90;;;;;;5056863;28;20430;-67
2021/04/06 07:27:06;;;;;;;3.63;2.20;;;1.30;99.90;;;;;;5038236;28;20829;-66
2021/04/06 07:29:34;;;;;;;3.47;2.37;;;1.40;99.90;;;;;;5055499;28;20489;-66
2021/04/06 07:32:02;;;;;;;5.00;2.87;;;1.40;99.90;;;;;;5055113;28;20484;-68
2021/04/06 07:34:31;;;;;;;4.30;2.40;;;1.40;99.90;;;;;;5038391;28;20828;-66
2021/04/06 07:37:03;;;;;;;3.47;3.10;;;1.60;99.90;;;;;;5021386;28;20450;-66
2021/04/06 07:39:31;;;;;;;4.03;2.50;;;1.70;99.90;;;;;;5021211;28;20443;-66
2021/04/06 07:42:00;;;;;;;6.00;2.90;;;1.40;99.90;;;;;;5055704;28;20435;-68
2021/04/06 07:44:30;;;;;;;4.93;3.10;;;1.50;99.90;;;;;;5056683;28;20508;-66
2021/04/06 07:47:01;;;;;;;2.83;2.50;;;1.50;99.90;;;;;;5055325;28;20992;-67
2021/04/06 07:49:39;;;;;;;7.07;3.67;;;1.40;99.90;;;;;;5037917;28;20438;-66
2021/04/06 07:52:17;;;;;;;4.03;3.13;;;1.40;99.90;;;;;;5056347;28;20437;-67
2021/04/06 07:55:12;;;;;;;8.60;3.43;;;1.40;99.90;;;;;;5055434;28;20512;-67
2021/04/06 07:58:04;;;;;;;5.23;4.10;;;1.40;99.90;;;;;;5055223;28;20439;-66
2021/04/06 08:00:49;;;;;;;5.13;2.87;;;1.50;99.90;;;;;;5055147;28;20492;-70
2021/04/06 08:04:05;;;;;;;3.20;2.83;;;1.60;99.90;;;;;;5055836;28;20438;-68
2021/04/06 08:06:47;;;;;;;3.80;2.50;;;1.80;99.90;;;;;;5040487;28;20446;-65
2021/04/06 08:09:42;;;;;;;6.83;2.53;;;2.00;99.90;;;;;;5037139;28;20427;-66
2021/04/06 08:12:13;;;;;;;2.97;2.47;;;2.00;99.90;;;;;;5054606;28;20501;-67
2021/04/06 08:14:44;;;;;;;3.20;2.90;;;2.10;99.90;;;;;;5054926;28;20568;-66
2021/04/06 08:17:41;;;;;;;4.57;3.33;;;2.00;99.90;;;;;;5054333;28;20470;-66
2021/04/06 08:20:24;;;;;;;5.97;2.70;;;2.00;99.90;;;;;;5057326;28;20421;-67
2021/04/06 08:22:57;;;;;;;6.80;3.03;;;3.50;99.90;;;;;;5055912;28;20470;-67
2021/04/06 08:25:43;;;;;;;4.23;2.70;;;4.90;98.90;;;;;;5055243;28;20427;-67
2021/04/06 08:28:28;;;;;;;3.33;2.63;;;5.20;97.70;;;;;;5038338;28;20438;-68
2021/04/06 08:31:28;;;;;;;3.77;3.13;;;4.20;98.50;;;;;;5022564;28;20485;-66
2021/04/06 08:34:35;;;;;;;5.57;3.03;;;3.50;99.90;;;;;;5035638;28;20458;-67
2021/04/06 08:37:12;;;;;;;5.30;2.90;;;3.00;99.90;;;;;;5035222;28;20455;-69
2021/04/06 08:39:41;;;;;;;4.33;2.90;;;3.20;99.90;;;;;;5037304;28;20421;-67
2021/04/06 08:42:14;;;;;;;5.23;2.63;;;3.30;99.90;;;;;;5035838;28;20888;-67
2021/04/06 08:44:54;;;;;;;4.43;3.20;;;3.00;99.90;;;;;;5035164;28;20443;-67
2021/04/06 08:47:39;;;;;;;5.60;3.20;;;3.10;99.90;;;;;;5033884;28;20471;-68
2021/04/06 08:50:10;;;;;;;4.00;2.53;;;3.60;99.90;;;;;;5033810;28;20435;-68
2021/04/06 08:52:39;;;;;;;3.80;2.67;;;4.00;99.90;;;;;;5034791;28;20432;-66
2021/04/06 08:55:11;;;;;;;2.60;2.37;;;5.90;97.60;;;;;;5034496;28;20513;-67
2021/04/06 08:58:04;;;;;;;2.57;2.37;;;7.80;93.40;;;;;;5034578;28;20441;-68
2021/04/06 09:00:32;;;;;;;4.27;3.50;;;6.90;91.90;;;;;;5033685;28;20446;-70
2021/04/06 09:03:06;;;;;;;2.83;1.93;;;4.90;95.80;;;;;;5034851;28;20431;-66
2021/04/06 09:05:34;;;;;;;3.33;2.73;;;3.60;99.70;;;;;;5050542;28;20439;-67
2021/04/06 09:08:01;;;;;;;10.13;3.53;;;3.10;99.90;;;;;;5034638;28;20462;-66
2021/04/06 09:10:38;;;;;;;7.47;3.23;;;2.60;99.90;;;;;;5034064;28;20436;-67
2021/04/06 09:13:06;;;;;;;4.20;2.90;;;2.30;99.90;;;;;;5034306;28;20446;-67
2021/04/06 09:15:34;;;;;;;4.50;2.50;;;2.20;99.90;;;;;;5034432;28;20632;-66
2021/04/06 09:18:02;;;;;;;2.27;2.07;;;2.10;99.90;;;;;;5035036;28;20423;-67
2021/04/06 09:20:30;;;;;;;6.37;3.00;;;2.00;99.90;;;;;;5034861;28;20434;-66
2021/04/06 09:22:58;;;;;;;2.77;2.57;;;2.00;99.90;;;;;;5036480;28;20943;-66
2021/04/06 09:25:28;;;;;;;10.60;3.20;;;2.00;99.90;;;;;;5042225;28;20443;-66
2021/04/06 09:28:01;;;;;;;3.93;3.03;;;2.10;99.90;;;;;;5041039;28;20441;-66
2021/04/06 09:30:32;;;;;;;2.50;2.30;;;2.10;99.90;;;;;;5051909;28;20496;-67
2021/04/06 09:33:08;;;;;;;4.37;2.43;;;1.90;99.90;;;;;;5062016;28;20538;-69
2021/04/06 09:35:36;;;;;;;7.40;3.17;;;2.00;99.90;;;;;;5065492;28;20548;-67
2021/04/06 09:38:03;;;;;;;6.43;2.90;;;2.10;99.90;;;;;;5063748;28;20954;-66
2021/04/06 09:40:34;;;;;;;3.07;2.20;;;2.20;99.90;;;;;;5063323;28;20445;-66
2021/04/06 09:43:03;;;;;;;4.93;2.70;;;2.60;99.90;;;;;;5060186;28;20800;-66
2021/04/06 09:45:31;;;;;;;4.57;2.10;;;3.50;99.90;;;;;;5057584;28;20468;-66
2021/04/06 09:47:59;;;;;;;4.67;3.10;;;4.00;99.90;;;;;;5057753;28;20941;-68
2021/04/06 09:50:30;;;;;;;4.10;2.37;;;4.20;99.90;;;;;;5057372;28;20434;-67
2021/04/06 09:52:58;;;;;;;5.63;2.97;;;5.60;97.40;;;;;;5057539;28;20430;-67
2021/04/06 09:55:30;;;;;;;4.63;3.00;;;6.50;95.90;;;;;;5057236;28;20461;-67
2021/04/06 09:58:03;;;;;;;4.00;2.47;;;6.50;94.00;;;;;;5039601;28;20430;-67
2021/04/06 10:00:33;;;;;;;5.30;3.10;;;5.80;95.50;;;;;;5056228;28;20475;-67
2021/04/06 10:03:08;;;;;;;5.47;1.77;;;5.10;96.50;;;;;;5039985;28;20435;-67
2021/04/06 10:05:38;;;;;;;6.37;3.00;;;4.80;96.70;;;;;;5038341;28;20586;-66
2021/04/06 10:08:08;;;;;;;3.13;2.83;;;4.40;97.80;;;;;;5057036;28;20880;-66
2021/04/06 10:10:36;;;;;;;3.63;2.37;;;4.20;98.40;;;;;;5056803;28;20426;-68
2021/04/06 10:13:07;;;;;;;4.27;2.00;;;5.20;97.80;;;;;;5057540;28;20442;-67
2021/04/06 10:15:35;;;;;;;2.50;2.30;;;4.90;96.50;;;;;;5055766;28;20474;-69
2021/04/06 10:18:11;;;;;;;4.00;2.37;;;5.00;97.30;;;;;;5039194;28;20430;-66
2021/04/06 10:20:41;;;;;;;4.60;2.87;;;6.20;95.00;;;;;;5057241;28;20775;-66
2021/04/06 10:23:10;;;;;;;7.00;2.40;;;6.70;93.60;;;;;;5056615;28;20443;-66
2021/04/06 10:25:40;;;;;;;2.87;2.60;;;5.90;94.50;;;;;;5056795;28;20443;-66
2021/04/06 10:28:19;;;;;;;2.83;1.87;;;5.20;95.10;;;;;;5057124;28;20438;-66
2021/04/06 10:30:56;;;;;;;5.03;3.13;;;4.70;96.30;;;;;;5055783;28;20470;-66
2021/04/06 10:33:28;;;;;;;3.20;2.00;;;4.30;97.30;;;;;;5056811;28;20426;-66
2021/04/06 10:35:57;;;;;;;3.03;2.60;;;3.90;98.30;;;;;;5056648;28;20490;-66
2021/04/06 10:38:29;;;;;;;3.10;2.10;;;3.60;98.60;;;;;;5057353;28;20441;-67
2021/04/06 10:41:01;;;;;;;4.17;2.33;;;3.30;98.70;;;;;;5056583;28;20454;-68
2021/04/06 10:43:31;;;;;;;2.97;2.53;;;3.20;98.90;;;;;;5057378;28;20522;-67
2021/04/06 10:46:05;;;;;;;3.37;2.30;;;3.20;99.00;;;;;;5021797;28;20504;-66
2021/04/06 10:48:35;;;;;;;2.90;2.10;;;3.20;99.20;;;;;;5057417;28;20417;-69
2021/04/06 10:51:13;;;;;;;3.77;2.20;;;3.30;99.10;;;;;;5024133;28;20443;-66
2021/04/06 10:53:45;;;;;;;3.90;2.10;;;3.50;99.20;;;;;;5056699;28;20430;-66
2021/04/06 10:56:18;;;;;;;5.33;3.07;;;3.20;99.40;;;;;;5056692;28;20466;-69
2021/04/06 10:58:49;;;;;;;4.97;3.33;;;3.10;99.90;;;;;;5057492;28;20438;-67
2021/04/06 11:01:19;;;;;;;2.83;1.67;;;2.90;99.90;;;;;;5038135;28;20475;-67
2021/04/06 11:03:49;;;;;;;5.33;2.70;;;2.70;99.90;;;;;;5057455;28;20867;-66
2021/04/06 11:06:23;;;;;;;4.43;2.50;;;2.60;99.90;;;;;;5056437;28;20861;-67
2021/04/06 11:08:52;;;;;;;5.70;3.10;;;2.60;99.90;;;;;;5056505;28;20604;-67
2021/04/06 11:11:25;;;;;;;4.63;2.87;;;2.70;99.90;;;;;;5056391;28;20501;-68
2021/04/06 11:13:55;;;;;;;3.30;2.97;;;2.80;99.90;;;;;;5039455;28;20452;-67
2021/04/06 11:16:23;;;;;;;3.63;2.47;;;2.80;99.90;;;;;;5056720;28;20492;-67
2021/04/06 11:19:06;;;;;;;3.30;2.90;;;2.90;99.90;;;;;;5058743;28;20547;-69
2021/04/06 11:21:38;;;;;;;5.80;2.50;;;2.90;99.90;;;;;;5057191;28;20956;-66
2021/04/06 11:24:32;;;;;;;4.63;2.27;;;3.00;99.90;;;;;;5058667;28;20437;-66
2021/04/06 11:27:01;;;;;;;5.03;2.70;;;3.20;99.90;;;;;;5057613;28;20525;-66
2021/04/06 11:29:32;;;;;;;4.37;2.27;;;3.40;99.80;;;;;;5059070;28;20772;-70
2021/04/06 11:32:03;;;;;;;5.97;2.50;;;3.70;99.40;;;;;;5055208;28;20930;-68
2021/04/06 11:34:31;;;;;;;4.90;2.40;;;4.30;97.80;;;;;;5058128;28;20434;-69
2021/04/06 11:36:59;;;;;;;4.37;2.10;;;5.70;95.50;;;;;;5058605;28;20514;-67
2021/04/06 11:39:28;;;;;;;2.37;2.17;;;6.10;93.00;;;;;;5057908;28;20432;-66
2021/04/06 11:41:59;;;;;;;4.83;2.40;;;6.60;92.30;;;;;;5062616;28;20962;-67
2021/04/06 11:44:31;;;;;;;2.80;2.10;;;6.50;91.40;;;;;;5043851;28;20443;-66
2021/04/06 11:47:00;;;;;;;2.73;2.40;;;7.40;90.10;;;;;;5034416;28;20957;-67
2021/04/06 11:49:29;;;;;;;4.13;2.50;;;7.40;86.00;;;;;;5056819;28;20473;-67
2021/04/06 11:51:57;;;;;;;3.63;2.33;;;6.80;87.50;;;;;;5058964;28;20434;-67
2021/04/06 11:54:50;;;;;;;6.70;2.23;;;6.10;90.00;;;;;;5062267;28;20431;-67
2021/04/06 11:57:18;;;;;;;3.93;2.50;;;5.70;90.90;;;;;;5061790;28;20430;-67
2021/04/06 11:59:47;;;;;;;5.80;2.67;;;5.90;91.40;;;;;;5055350;28;20719;-67
2021/04/06 12:02:16;;;;;;;2.53;1.57;;;6.00;90.60;;;;;;5054635;28;20235;-67
2021/04/06 12:04:44;;;;;;;4.90;2.00;;;5.60;91.20;;;;;;5057083;28;20438;-67
2021/04/06 12:07:12;;;;;;;2.20;1.80;;;5.80;91.00;;;;;;5022882;28;20427;-69
2021/04/06 12:09:43;;;;;;;3.17;2.30;;;6.80;87.90;;;;;;5037903;28;20434;-67
2021/04/06 12:12:12;;;;;;;3.40;2.50;;;7.50;83.20;;;;;;5037624;28;20447;-68
2021/04/06 12:14:39;;;;;;;4.03;2.23;;;7.10;83.50;;;;;;5055986;28;20427;-68
2021/04/06 12:17:07;;;;;;;5.43;2.30;;;6.20;86.00;;;;;;5036590;28;20512;-68
2021/04/06 12:19:35;;;;;;;2.57;1.60;;;5.70;87.40;;;;;;5055702;28;20473;-69
2021/04/06 12:22:28;;;;;;;1.73;1.60;;;5.00;88.70;;;;;;5055558;28;20488;-67
2021/04/06 12:24:56;;;;;;;4.03;1.87;;;4.40;90.10;;;;;;5039466;28;20443;-68
2021/04/06 12:27:23;;;;;;;2.20;1.50;;;4.30;90.80;;;;;;5054374;28;20434;-67
2021/04/06 12:29:51;;;;;;;2.43;2.23;;;4.00;95.30;;;;;;5054356;28;20567;-68
2021/04/06 12:32:19;;;;;;;4.03;2.97;;;2.20;99.90;;;;;;5036589;28;20569;-68
2021/04/06 12:34:46;;;;;;;2.60;2.20;;;1.70;99.90;;;;;;5037613;28;20434;-70
2021/04/06 12:37:14;;;;;;;5.20;1.93;;;1.20;99.90;;;;;;5055718;28;20634;-68
2021/04/06 12:40:03;;;;;;;3.73;1.90;;;1.20;99.90;;;;;;5038678;28;20435;-67
2021/04/06 12:42:30;;;;;;;2.97;2.77;;;1.10;99.90;;;;;;5055235;28;20788;-67
2021/04/06 12:44:57;;;;;;;6.53;2.93;;;1.20;99.90;;;;;;5055428;28;20530;-67
2021/04/06 12:47:25;;;;;;;5.40;3.50;;;1.40;99.90;;;;;;5053760;28;20474;-68
2021/04/06 12:49:53;;;;;;;8.40;3.00;;;1.40;99.90;;;;;;5054422;28;20438;-69
2021/04/06 12:52:21;;;;;;;3.10;2.57;;;1.50;99.90;;;;;;5036514;28;20450;-67
2021/04/06 12:55:14;;;;;;;3.20;2.50;;;1.50;99.90;;;;;;5055393;28;20965;-68
2021/04/06 12:57:43;;;;;;;4.13;2.80;;;1.50;99.90;;;;;;5055178;28;20949;-67
2021/04/06 13:00:12;;;;;;;4.60;2.50;;;1.50;99.90;;;;;;5055963;28;20523;-68
2021/04/06 13:02:40;;;;;;;3.00;2.67;;;1.60;99.90;;;;;;5054708;28;20450;-68
2021/04/06 13:05:09;;;;;;;2.10;1.87;;;1.80;99.90;;;;;;5054744;28;20430;-68
2021/04/06 13:07:37;;;;;;;3.67;2.20;;;1.90;99.90;;;;;;5053781;28;20455;-69
2021/04/06 13:10:07;;;;;;;2.80;2.50;;;1.80;99.90;;;;;;5054153;28;20442;-69
2021/04/06 13:12:35;;;;;;;1.80;1.70;;;1.60;99.90;;;;;;5037923;28;20768;-69
2021/04/06 13:15:03;;;;;;;2.23;2.00;;;1.60;99.90;;;;;;5058777;28;20531;-71
2021/04/06 13:17:30;;;;;;;4.23;1.90;;;1.50;99.90;;;;;;5019931;28;20479;-73
2021/04/06 13:19:58;;;;;;;4.83;2.00;;;1.70;99.90;;;;;;5038122;28;20855;-71
2021/04/06 13:22:29;;;;;;;8.27;3.10;;;2.50;99.90;;;;;;5020725;28;20848;-70
2021/04/06 13:24:57;;;;;;;1.50;1.40;;;3.60;99.90;;;;;;5020398;28;20431;-70